createdAt,value
2023-05-14T00:01:59.128Z,5.37
2023-05-14T00:04:27.234Z,5.93
2023-05-14T00:06:55.377Z,5.27
2023-05-14T00:09:23.399Z,5.27
2023-05-14T00:11:52.842Z,5.00
2023-05-14T00:14:21.036Z,5.27
2023-05-14T00:16:49.095Z,5.10
2023-05-14T00:19:17.141Z,5.30
2023-05-14T00:21:45.259Z,5.23
2023-05-14T00:24:13.315Z,5.23
2023-05-14T00:26:41.550Z,5.37
2023-05-14T00:29:11.141Z,5.63
2023-05-14T00:31:39.191Z,5.70
2023-05-14T00:34:07.271Z,5.57
2023-05-14T00:36:35.356Z,6.00
2023-05-14T00:39:03.789Z,5.20
2023-05-14T00:41:31.818Z,5.53
2023-05-14T00:43:59.931Z,5.43
2023-05-14T00:46:29.663Z,5.33
2023-05-14T00:48:58.265Z,6.17
2023-05-14T00:51:26.742Z,5.23
2023-05-14T00:53:55.097Z,6.00
2023-05-14T00:56:23.430Z,5.90
2023-05-14T00:58:51.463Z,6.07
2023-05-14T01:01:19.547Z,5.90
2023-05-14T01:03:49.357Z,5.60
2023-05-14T01:06:26.536Z,6.00
2023-05-14T01:09:02.032Z,5.40
2023-05-14T01:11:34.894Z,6.07
2023-05-14T01:14:09.959Z,5.07
2023-05-14T01:16:38.940Z,5.93
2023-05-14T01:19:18.151Z,5.40
2023-05-14T01:21:47.522Z,5.77
2023-05-14T01:24:15.516Z,5.73
2023-05-14T01:26:43.507Z,4.83
2023-05-14T01:29:18.094Z,7.13
2023-05-14T01:31:48.166Z,5.90
2023-05-14T01:34:17.549Z,6.10
2023-05-14T01:36:48.265Z,6.73
2023-05-14T01:39:16.898Z,6.37
2023-05-14T01:41:46.609Z,6.07
2023-05-14T01:44:15.019Z,6.43
2023-05-14T01:46:43.040Z,6.00
2023-05-14T01:49:11.065Z,6.57
2023-05-14T01:51:39.258Z,6.07
2023-05-14T01:54:08.647Z,6.50
2023-05-14T01:56:36.644Z,5.87
2023-05-14T01:59:04.626Z,6.60
2023-05-14T02:01:33.936Z,6.47
2023-05-14T02:04:02.202Z,6.23
2023-05-14T02:06:30.231Z,5.97
2023-05-14T02:08:58.250Z,6.27
2023-05-14T02:11:27.636Z,6.03
2023-05-14T02:13:55.618Z,5.73
2023-05-14T02:16:23.680Z,6.40
2023-05-14T02:18:51.731Z,6.27
2023-05-14T02:21:19.813Z,6.73
2023-05-14T02:23:49.445Z,6.57
2023-05-14T02:26:17.511Z,7.03
2023-05-14T02:28:46.868Z,5.87
2023-05-14T02:31:14.953Z,6.07
2023-05-14T02:33:43.029Z,6.70
2023-05-14T02:36:11.056Z,7.50
2023-05-14T02:38:39.058Z,6.67
2023-05-14T02:41:07.176Z,6.83
2023-05-14T02:43:35.187Z,6.67
2023-05-14T02:46:04.811Z,7.27
2023-05-14T02:48:32.768Z,6.43
2023-05-14T02:51:01.148Z,7.37
2023-05-14T02:53:29.125Z,6.80
2023-05-14T02:55:57.094Z,7.20
2023-05-14T02:58:28.126Z,6.37
2023-05-14T03:00:56.685Z,7.17
2023-05-14T03:03:26.556Z,7.30
2023-05-14T03:05:55.142Z,7.57
2023-05-14T03:08:23.189Z,7.37
2023-05-14T03:10:51.271Z,6.37
2023-05-14T03:13:20.678Z,7.50
2023-05-14T03:15:48.895Z,7.10
2023-05-14T03:18:16.929Z,7.03
2023-05-14T03:20:46.289Z,7.13
2023-05-14T03:23:14.881Z,7.17
2023-05-14T03:25:43.187Z,6.93
2023-05-14T03:28:11.313Z,7.03
2023-05-14T03:30:39.417Z,6.57
2023-05-14T03:33:07.486Z,7.00
2023-05-14T03:35:35.674Z,7.03
2023-05-14T03:38:05.058Z,6.37
2023-05-14T03:40:33.080Z,6.20
2023-05-14T03:43:01.120Z,6.13
2023-05-14T03:45:30.442Z,6.07
2023-05-14T03:47:58.560Z,6.57
2023-05-14T03:50:26.746Z,7.10
2023-05-14T03:52:55.061Z,6.63
2023-05-14T03:55:24.670Z,6.60
2023-05-14T03:57:52.758Z,6.33
2023-05-14T04:00:21.472Z,6.40
2023-05-14T04:02:49.926Z,6.00
2023-05-14T04:05:18.435Z,6.33
2023-05-14T04:07:46.901Z,6.27
2023-05-14T04:10:15.196Z,6.63
2023-05-14T04:12:44.553Z,6.50
2023-05-14T04:15:13.474Z,5.73
2023-05-14T04:17:41.518Z,6.57
2023-05-14T04:20:10.438Z,5.80
2023-05-14T04:22:38.462Z,6.17
2023-05-14T04:25:07.388Z,5.97
2023-05-14T04:27:35.507Z,6.47
2023-05-14T04:30:06.527Z,5.43
2023-05-14T04:32:34.821Z,6.83
2023-05-14T04:35:04.275Z,6.37
2023-05-14T04:37:32.887Z,6.67
2023-05-14T04:40:00.951Z,6.40
2023-05-14T04:42:28.927Z,5.80
2023-05-14T04:44:56.938Z,6.17
2023-05-14T04:47:26.533Z,6.73
2023-05-14T04:49:54.577Z,6.43
2023-05-14T04:52:23.452Z,7.27
2023-05-14T04:54:51.563Z,6.20
2023-05-14T04:57:19.584Z,5.83
2023-05-14T04:59:47.580Z,6.73
2023-05-14T05:02:15.558Z,6.10
2023-05-14T05:04:44.971Z,6.80
2023-05-14T05:07:13.265Z,6.53
2023-05-14T05:09:41.352Z,6.13
2023-05-14T05:12:10.010Z,6.30
2023-05-14T05:14:38.019Z,6.17
2023-05-14T05:17:06.229Z,8.00
2023-05-14T05:19:43.082Z,8.37
2023-05-14T05:22:13.404Z,6.43
2023-05-14T05:24:41.478Z,6.57
2023-05-14T05:27:09.768Z,6.13
2023-05-14T05:29:38.080Z,6.27
2023-05-14T05:32:07.048Z,6.20
2023-05-14T05:34:35.824Z,6.63
2023-05-14T05:37:05.156Z,6.77
2023-05-14T05:39:35.125Z,6.03
2023-05-14T05:42:03.523Z,5.80
2023-05-14T05:44:31.543Z,6.47
2023-05-14T05:46:59.683Z,6.03
2023-05-14T05:49:27.757Z,6.63
2023-05-14T05:51:55.784Z,5.93
2023-05-14T05:54:25.568Z,6.27
2023-05-14T05:56:55.242Z,6.03
2023-05-14T05:59:23.310Z,6.33
2023-05-14T06:01:51.375Z,5.73
2023-05-14T06:04:19.730Z,6.00
2023-05-14T06:06:47.733Z,5.73
2023-05-14T06:09:16.005Z,7.60
2023-05-14T06:11:44.040Z,5.63
2023-05-14T06:14:13.554Z,5.17
2023-05-14T06:16:41.693Z,5.33
2023-05-14T06:19:10.160Z,5.60
2023-05-14T06:21:38.248Z,5.80
2023-05-14T06:24:06.964Z,5.87
2023-05-14T06:26:34.955Z,5.80
2023-05-14T06:29:03.051Z,5.50
2023-05-14T06:31:32.430Z,5.23
2023-05-14T06:34:00.446Z,6.97
2023-05-14T06:36:28.480Z,5.03
2023-05-14T06:38:56.480Z,5.73
2023-05-14T06:41:24.460Z,6.17
2023-05-14T06:43:52.552Z,4.90
2023-05-14T06:46:20.622Z,6.27
2023-05-14T06:48:50.109Z,4.27
2023-05-14T06:51:18.247Z,5.33
2023-05-14T06:53:46.810Z,4.97
2023-05-14T06:56:14.837Z,3.93
2023-05-14T06:58:42.863Z,5.70
2023-05-14T07:01:11.160Z,4.00
2023-05-14T07:03:39.209Z,4.43
2023-05-14T07:06:08.881Z,4.33
2023-05-14T07:08:37.166Z,4.80
2023-05-14T07:11:05.211Z,3.50
2023-05-14T07:13:33.215Z,4.03
2023-05-14T07:16:01.223Z,3.40
2023-05-14T07:18:29.241Z,3.73
2023-05-14T07:20:57.340Z,3.60
2023-05-14T07:23:26.849Z,4.23
2023-05-14T07:25:54.856Z,4.00
2023-05-14T07:28:23.026Z,4.10
2023-05-14T07:30:51.050Z,4.40
2023-05-14T07:33:19.101Z,4.20
2023-05-14T07:35:47.127Z,4.53
2023-05-14T07:38:15.349Z,4.33
2023-05-14T07:40:44.761Z,3.80
2023-05-14T07:43:12.827Z,4.23
2023-05-14T07:45:42.009Z,5.73
2023-05-14T07:48:10.127Z,4.60
2023-05-14T07:50:38.400Z,4.67
2023-05-14T07:53:06.465Z,5.07
2023-05-14T07:55:34.612Z,4.70
2023-05-14T07:58:04.057Z,4.40
2023-05-14T08:00:32.151Z,3.70
2023-05-14T08:03:00.481Z,4.23
2023-05-14T08:05:28.572Z,3.80
2023-05-14T08:07:56.584Z,3.63
2023-05-14T08:10:24.939Z,4.77
2023-05-14T08:12:53.144Z,3.50
2023-05-14T08:15:22.494Z,3.63
2023-05-14T08:17:50.826Z,3.67
2023-05-14T08:20:19.049Z,4.63
2023-05-14T08:22:47.060Z,3.97
2023-05-14T08:25:15.183Z,3.63
2023-05-14T08:27:43.178Z,4.53
2023-05-14T08:30:12.083Z,3.93
2023-05-14T08:32:42.388Z,3.63
2023-05-14T08:35:10.973Z,4.20
2023-05-14T08:37:39.114Z,3.50
2023-05-14T08:40:08.801Z,3.60
2023-05-14T08:42:40.482Z,5.47
2023-05-14T08:45:15.146Z,4.10
2023-05-14T08:47:48.345Z,4.37
2023-05-14T08:50:17.128Z,3.80
2023-05-14T08:52:45.251Z,3.27
2023-05-14T08:55:13.865Z,4.10
2023-05-14T08:57:41.904Z,4.70
2023-05-14T09:00:12.277Z,3.73
2023-05-14T09:02:41.775Z,4.30
2023-05-14T09:05:12.488Z,3.93
2023-05-14T09:07:40.848Z,3.50
2023-05-14T09:10:10.452Z,3.30
2023-05-14T09:12:38.428Z,5.60
2023-05-14T09:15:08.010Z,3.83
2023-05-14T09:17:36.414Z,4.10
2023-05-14T09:20:04.976Z,3.63
2023-05-14T09:22:35.951Z,5.10
2023-05-14T09:25:06.139Z,3.43
2023-05-14T09:27:34.687Z,3.97
2023-05-14T09:30:11.586Z,3.40
2023-05-14T09:32:41.136Z,3.47
2023-05-14T09:35:14.693Z,3.43
2023-05-14T09:37:44.953Z,4.87
2023-05-14T09:40:13.338Z,4.57
2023-05-14T09:42:41.884Z,5.47
2023-05-14T09:45:10.802Z,3.70
2023-05-14T09:47:39.474Z,3.47
2023-05-14T09:50:08.744Z,3.63
2023-05-14T09:52:37.330Z,3.30
2023-05-14T09:55:08.008Z,3.40
2023-05-14T09:57:36.659Z,4.03
2023-05-14T10:00:05.282Z,3.43
2023-05-14T10:02:38.864Z,3.93
2023-05-14T10:05:09.494Z,4.17
2023-05-14T10:07:41.642Z,4.73
2023-05-14T10:10:16.750Z,3.77
2023-05-14T10:12:52.093Z,4.53
2023-05-14T10:15:24.853Z,3.70
2023-05-14T10:17:59.832Z,3.50
2023-05-14T10:20:28.940Z,4.07
2023-05-14T10:22:57.755Z,4.77
2023-05-14T10:25:27.807Z,3.23
2023-05-14T10:27:56.320Z,2.90
2023-05-14T10:30:24.764Z,3.10
2023-05-14T10:33:07.992Z,3.60
2023-05-14T10:35:56.575Z,5.13
2023-05-14T10:38:27.195Z,3.40
2023-05-14T10:40:59.009Z,3.07
2023-05-14T10:43:29.067Z,3.10
2023-05-14T10:45:57.951Z,3.57
2023-05-14T10:48:26.691Z,4.27
2023-05-14T10:50:56.118Z,4.03
2023-05-14T10:53:34.240Z,3.30
2023-05-14T10:56:07.200Z,3.53
2023-05-14T10:58:37.451Z,3.47
2023-05-14T11:01:07.149Z,5.00
2023-05-14T11:03:41.835Z,3.00
2023-05-14T11:06:11.129Z,3.97
2023-05-14T11:08:39.480Z,4.13
2023-05-14T11:11:10.259Z,4.20
2023-05-14T11:13:38.483Z,4.40
2023-05-14T11:18:40.792Z,4.03
2023-05-14T11:21:08.865Z,3.63
2023-05-14T11:23:36.981Z,3.13
2023-05-14T11:26:05.324Z,2.70
2023-05-14T11:28:35.354Z,4.50
2023-05-14T11:31:03.379Z,4.03
2023-05-14T11:33:32.165Z,3.83
2023-05-14T11:36:00.127Z,3.93
2023-05-14T11:38:28.135Z,5.37
2023-05-14T11:40:57.146Z,4.23
2023-05-14T11:43:26.155Z,3.10
2023-05-14T11:45:56.149Z,3.47
2023-05-14T11:48:25.034Z,4.07
2023-05-14T11:50:54.302Z,3.20
2023-05-14T11:53:26.660Z,3.37
2023-05-14T11:55:55.508Z,5.17
2023-05-14T11:58:23.659Z,4.80
2023-05-14T12:00:52.137Z,2.63
2023-05-14T12:03:25.361Z,3.77
2023-05-14T12:05:58.070Z,4.73
2023-05-14T12:08:29.471Z,4.47
2023-05-14T12:10:59.238Z,4.07
2023-05-14T12:13:27.767Z,2.80
2023-05-14T12:15:57.066Z,3.67
2023-05-14T12:18:29.135Z,4.00
2023-05-14T12:20:57.657Z,3.90
2023-05-14T12:23:30.508Z,5.27
2023-05-14T12:26:03.693Z,5.20
2023-05-14T12:28:32.228Z,6.00
2023-05-14T12:31:00.749Z,4.33
2023-05-14T12:33:30.098Z,5.53
2023-05-14T12:36:09.937Z,3.17
2023-05-14T12:38:42.059Z,3.00
2023-05-14T12:41:10.055Z,3.93
2023-05-14T12:43:38.102Z,3.10
2023-05-14T12:46:06.289Z,4.77
2023-05-14T12:48:35.907Z,3.10
2023-05-14T12:51:03.913Z,3.97
2023-05-14T12:53:31.929Z,3.17
2023-05-14T12:55:59.924Z,3.07
2023-05-14T12:58:27.965Z,2.83
2023-05-14T13:00:56.440Z,4.20
2023-05-14T13:03:24.930Z,4.77
2023-05-14T13:05:55.604Z,3.63
2023-05-14T13:08:25.169Z,2.93
2023-05-14T13:10:53.493Z,4.27
2023-05-14T13:13:21.652Z,5.13
2023-05-14T13:15:49.774Z,4.97
2023-05-14T13:18:18.676Z,3.10
2023-05-14T13:20:47.570Z,4.90
2023-05-14T13:23:17.222Z,3.90
2023-05-14T13:25:46.470Z,4.43
2023-05-14T13:28:15.502Z,4.43
2023-05-14T13:31:03.641Z,3.40
2023-05-14T13:33:31.698Z,3.60
2023-05-14T13:35:59.705Z,4.40
2023-05-14T13:38:29.095Z,4.73
2023-05-14T13:41:02.123Z,3.40
2023-05-14T13:43:31.042Z,4.97
2023-05-14T13:45:59.262Z,3.57
2023-05-14T13:48:27.728Z,3.63
2023-05-14T13:50:56.007Z,4.00
2023-05-14T13:53:25.195Z,3.33
2023-05-14T13:55:56.628Z,4.40
2023-05-14T13:58:25.169Z,4.27
2023-05-14T14:00:53.898Z,3.53
2023-05-14T14:03:22.121Z,5.57
2023-05-14T14:05:50.198Z,5.03
2023-05-14T14:08:23.846Z,5.10
2023-05-14T14:10:55.309Z,3.53
2023-05-14T14:13:24.467Z,4.87
2023-05-14T14:15:52.648Z,3.60
2023-05-14T14:18:20.751Z,3.70
2023-05-14T14:20:49.105Z,3.00
2023-05-14T14:23:17.146Z,3.70
2023-05-14T14:25:45.195Z,4.23
2023-05-14T14:28:14.682Z,3.33
2023-05-14T14:30:43.809Z,5.83
2023-05-14T14:33:12.382Z,3.70
2023-05-14T14:35:40.522Z,3.77
2023-05-14T14:38:08.531Z,3.50
2023-05-14T14:40:36.572Z,3.33
2023-05-14T14:43:04.598Z,6.57
2023-05-14T14:45:34.054Z,4.50
2023-05-14T14:48:26.957Z,4.00
2023-05-14T14:50:55.467Z,5.70
2023-05-14T14:53:24.604Z,3.20
2023-05-14T14:55:53.132Z,6.23
2023-05-14T14:58:22.113Z,4.20
2023-05-14T15:00:53.353Z,3.10
2023-05-14T15:03:22.136Z,3.17
2023-05-14T15:05:51.157Z,3.10
2023-05-14T15:08:19.239Z,3.23
2023-05-14T15:10:47.280Z,3.13
2023-05-14T15:13:15.276Z,3.13
2023-05-14T15:15:43.326Z,4.37
2023-05-14T15:18:12.882Z,4.07
2023-05-14T15:20:41.210Z,3.37
2023-05-14T15:23:11.515Z,5.17
2023-05-14T15:25:39.601Z,4.63
2023-05-14T15:28:08.156Z,4.87
2023-05-14T15:30:36.311Z,3.57
2023-05-14T15:33:04.402Z,3.47
2023-05-14T15:35:33.800Z,3.80
2023-05-14T15:38:01.802Z,4.67
2023-05-14T15:40:30.353Z,5.40
2023-05-14T15:42:58.401Z,3.27
2023-05-14T15:45:26.435Z,3.57
2023-05-14T15:47:54.719Z,4.37
2023-05-14T15:50:22.888Z,3.70
2023-05-14T15:52:52.490Z,3.50
2023-05-14T15:55:20.659Z,4.70
2023-05-14T15:57:48.688Z,3.47
2023-05-14T16:00:17.593Z,5.00
2023-05-14T16:02:45.725Z,3.37
2023-05-14T16:05:15.299Z,3.63
2023-05-14T16:07:43.831Z,3.50
2023-05-14T16:10:13.346Z,3.43
2023-05-14T16:12:41.316Z,3.30
2023-05-14T16:15:10.209Z,4.27
2023-05-14T16:17:38.221Z,6.07
2023-05-14T16:20:07.059Z,3.53
2023-05-14T16:22:36.216Z,3.77
2023-05-14T16:25:05.807Z,4.23
2023-05-14T16:27:35.799Z,4.07
2023-05-14T16:30:04.462Z,4.20
2023-05-14T16:32:32.496Z,3.50
2023-05-14T16:35:02.420Z,3.70
2023-05-14T16:37:30.568Z,5.73
2023-05-14T16:39:58.521Z,5.27
2023-05-14T16:42:26.638Z,3.47
2023-05-14T16:44:55.961Z,3.97
2023-05-14T16:47:23.953Z,5.10
2023-05-14T16:49:51.928Z,5.10
2023-05-14T16:52:19.992Z,5.83
2023-05-14T16:54:47.953Z,4.17
2023-05-14T16:57:16.188Z,3.40
2023-05-14T16:59:44.177Z,5.27
2023-05-14T17:02:13.545Z,4.10
2023-05-14T17:04:42.344Z,3.50
2023-05-14T17:07:10.459Z,4.07
2023-05-14T17:09:38.541Z,4.30
2023-05-14T17:12:07.170Z,4.03
2023-05-14T17:14:35.156Z,4.10
2023-05-14T17:17:03.463Z,4.73
2023-05-14T17:19:32.818Z,5.87
2023-05-14T17:22:00.942Z,3.43
2023-05-14T17:24:28.921Z,5.07
2023-05-14T17:26:57.013Z,3.60
2023-05-14T17:29:25.125Z,3.93
2023-05-14T17:31:53.264Z,4.40
2023-05-14T17:34:21.328Z,5.20
2023-05-14T17:36:50.832Z,4.70
2023-05-14T17:39:18.831Z,5.83
2023-05-14T17:41:46.826Z,3.50
2023-05-14T17:44:14.882Z,3.40
2023-05-14T17:46:44.705Z,5.50
2023-05-14T17:49:12.858Z,4.17
2023-05-14T17:51:40.991Z,5.50
2023-05-14T17:54:10.392Z,4.07
2023-05-14T17:56:38.612Z,5.90
2023-05-14T17:59:07.070Z,4.87
2023-05-14T18:01:35.178Z,3.40
2023-05-14T18:04:03.253Z,5.10
2023-05-14T18:06:31.287Z,4.90
2023-05-14T18:08:59.313Z,3.97
2023-05-14T18:11:33.642Z,3.33
2023-05-14T18:14:02.038Z,4.30
2023-05-14T18:16:30.223Z,4.20
2023-05-14T18:18:58.489Z,3.30
2023-05-14T18:21:26.577Z,3.97
2023-05-14T18:23:54.721Z,3.57
2023-05-14T18:26:23.146Z,3.70
2023-05-14T18:28:53.092Z,3.57
2023-05-14T18:31:21.176Z,3.50
2023-05-14T18:33:49.254Z,4.53
2023-05-14T18:36:18.633Z,4.83
2023-05-14T18:38:47.129Z,3.33
2023-05-14T18:41:15.108Z,4.53
2023-05-14T18:43:43.122Z,4.23
2023-05-14T18:46:12.553Z,3.93
2023-05-14T18:48:40.710Z,3.50
2023-05-14T18:51:08.686Z,3.63
2023-05-14T18:53:36.685Z,4.83
2023-05-14T18:56:05.051Z,3.47
2023-05-14T18:58:33.638Z,3.23
2023-05-14T19:01:01.620Z,3.30
2023-05-14T19:03:31.133Z,3.57
2023-05-14T19:05:59.243Z,3.47
2023-05-14T19:08:27.290Z,4.03
2023-05-14T19:10:55.268Z,3.53
2023-05-14T19:13:23.771Z,4.43
2023-05-14T19:15:51.988Z,3.60
2023-05-14T19:18:20.080Z,3.47
2023-05-14T19:20:49.455Z,3.37
2023-05-14T19:23:17.463Z,4.53
2023-05-14T19:25:45.741Z,5.13
2023-05-14T19:28:13.758Z,3.53
2023-05-14T19:30:41.745Z,3.60
2023-05-14T19:33:09.852Z,3.60
2023-05-14T19:35:37.957Z,3.60
2023-05-14T19:38:09.170Z,3.63
2023-05-14T19:40:37.300Z,3.90
2023-05-14T19:43:05.298Z,4.17
2023-05-14T19:45:36.564Z,3.53
2023-05-14T19:48:06.016Z,5.90
2023-05-14T19:50:34.197Z,3.40
2023-05-14T19:53:02.578Z,3.63
2023-05-14T19:55:32.164Z,4.63
2023-05-14T19:58:00.209Z,4.67
2023-05-14T20:00:28.343Z,3.67
2023-05-14T20:02:59.453Z,3.60
2023-05-14T20:05:27.917Z,3.63
2023-05-14T20:07:55.942Z,3.50
2023-05-14T20:10:24.338Z,4.20
2023-05-14T20:12:53.822Z,4.80
2023-05-14T20:15:21.947Z,3.67
2023-05-14T20:17:50.056Z,4.33
2023-05-14T20:20:18.218Z,3.87
2023-05-14T20:22:46.265Z,3.90
2023-05-14T20:25:14.391Z,4.57
2023-05-14T20:27:42.432Z,4.13
2023-05-14T20:30:12.357Z,3.60
2023-05-14T20:32:40.429Z,3.90
2023-05-14T20:35:09.076Z,4.30
2023-05-14T20:37:37.929Z,3.87
2023-05-14T20:40:09.740Z,5.30
2023-05-14T20:42:37.812Z,4.30
2023-05-14T20:45:07.094Z,3.73
2023-05-14T20:47:36.518Z,4.10
2023-05-14T20:50:04.722Z,3.80
2023-05-14T20:52:32.842Z,4.90
2023-05-14T20:55:01.947Z,4.20
2023-05-14T20:57:30.502Z,6.40
2023-05-14T20:59:58.613Z,5.77
2023-05-14T21:02:26.736Z,4.80
2023-05-14T21:04:56.325Z,4.10
2023-05-14T21:07:24.404Z,4.27
2023-05-14T21:09:52.856Z,4.40
2023-05-14T21:12:20.840Z,4.30
2023-05-14T21:14:48.857Z,4.57
2023-05-14T21:17:16.928Z,5.07
2023-05-14T21:19:45.029Z,4.60
2023-05-14T21:22:14.556Z,4.90
2023-05-14T21:24:42.636Z,4.53
2023-05-14T21:27:10.691Z,4.53
2023-05-14T21:29:39.822Z,5.13
2023-05-14T21:32:08.541Z,4.50
2023-05-14T21:34:36.570Z,4.27
2023-05-14T21:37:04.654Z,4.70
2023-05-14T21:39:34.010Z,5.07
2023-05-14T21:42:02.030Z,4.73
2023-05-14T21:44:30.011Z,5.03
2023-05-14T21:46:58.023Z,4.93
2023-05-14T21:49:26.055Z,4.90
2023-05-14T21:51:54.591Z,4.70
2023-05-14T21:54:22.645Z,5.53
2023-05-14T21:56:52.046Z,4.50
2023-05-14T21:59:20.047Z,5.43
2023-05-14T22:02:05.584Z,5.73
2023-05-14T22:04:35.256Z,5.00
2023-05-14T22:07:03.529Z,4.70
2023-05-14T22:09:31.594Z,5.23
2023-05-14T22:12:01.153Z,5.47
2023-05-14T22:14:29.452Z,5.33
2023-05-14T22:16:58.020Z,5.37
2023-05-14T22:19:26.822Z,4.63
2023-05-14T22:21:54.923Z,5.00
2023-05-14T22:24:22.896Z,4.60
2023-05-14T22:26:50.925Z,5.27
2023-05-14T22:29:20.309Z,5.63
2023-05-14T22:31:48.409Z,5.30
2023-05-14T22:34:16.478Z,6.43
2023-05-14T22:36:44.478Z,5.47
2023-05-14T22:39:13.600Z,6.00
2023-05-14T22:41:41.781Z,6.20
2023-05-14T22:44:09.767Z,5.90
2023-05-14T22:46:39.264Z,5.53
2023-05-14T22:49:07.316Z,5.83
2023-05-14T22:51:35.300Z,6.17
2023-05-14T22:54:03.293Z,5.67
2023-05-14T22:56:31.355Z,5.70
2023-05-14T22:59:00.288Z,5.87
2023-05-14T23:01:28.739Z,5.20
2023-05-14T23:03:58.263Z,6.40
2023-05-14T23:06:26.714Z,6.33
2023-05-14T23:08:54.736Z,5.67
2023-05-14T23:11:22.892Z,6.10
2023-05-14T23:13:51.264Z,5.77
2023-05-14T23:16:19.388Z,5.70
2023-05-14T23:18:47.499Z,6.00
2023-05-14T23:21:17.034Z,6.07
2023-05-14T23:23:45.496Z,6.10
2023-05-14T23:26:13.643Z,6.37
2023-05-14T23:28:41.657Z,5.90
2023-05-14T23:31:09.639Z,6.30
2023-05-14T23:33:39.756Z,6.07
2023-05-14T23:36:08.799Z,5.97
2023-05-14T23:38:38.196Z,6.43
2023-05-14T23:41:06.302Z,6.30
2023-05-14T23:43:34.316Z,6.40
2023-05-14T23:46:02.524Z,6.10
2023-05-14T23:48:30.685Z,6.37
2023-05-14T23:50:58.679Z,6.40
2023-05-14T23:53:26.741Z,7.37
2023-05-14T23:55:56.548Z,6.03
2023-05-14T23:58:24.653Z,6.40
